createdAt,value
2024-02-04T00:01:11.863Z,2.37
2024-02-04T00:03:41.279Z,2.70
2024-02-04T00:06:09.431Z,2.90
2024-02-04T00:08:37.416Z,2.90
2024-02-04T00:11:06.008Z,2.50
2024-02-04T00:13:34.197Z,2.60
2024-02-04T00:16:02.304Z,2.60
2024-02-04T00:18:30.416Z,2.83
2024-02-04T00:20:59.728Z,2.30
2024-02-04T00:23:27.753Z,2.50
2024-02-04T00:25:55.660Z,2.60
2024-02-04T00:28:23.569Z,2.30
2024-02-04T00:30:53.946Z,2.30
2024-02-04T00:33:22.103Z,2.47
2024-02-04T00:35:50.137Z,2.67
2024-02-04T00:38:20.118Z,2.57
2024-02-04T00:40:48.161Z,2.80
2024-02-04T00:43:16.597Z,2.40
2024-02-04T00:45:44.586Z,2.30
2024-02-04T00:48:12.597Z,2.73
2024-02-04T00:50:40.741Z,2.17
2024-02-04T00:53:08.656Z,2.23
2024-02-04T00:55:37.912Z,2.37
2024-02-04T00:58:06.026Z,2.30
2024-02-04T01:00:34.159Z,2.50
2024-02-04T01:03:02.409Z,2.47
2024-02-04T01:05:30.837Z,2.13
2024-02-04T01:07:58.798Z,2.07
2024-02-04T01:10:26.714Z,2.13
2024-02-04T01:12:55.975Z,2.17
2024-02-04T01:15:23.989Z,2.10
2024-02-04T01:17:52.785Z,2.07
2024-02-04T01:20:21.062Z,1.73
2024-02-04T01:22:49.012Z,1.93
2024-02-04T01:25:17.713Z,1.70
2024-02-04T01:27:45.559Z,2.07
2024-02-04T01:30:15.107Z,1.73
2024-02-04T01:32:43.016Z,1.70
2024-02-04T01:35:10.983Z,1.90
2024-02-04T01:37:39.656Z,2.10
2024-02-04T01:40:09.248Z,1.80
2024-02-04T01:42:37.248Z,2.10
2024-02-04T01:45:05.903Z,1.90
2024-02-04T01:47:35.310Z,1.90
2024-02-04T01:50:03.773Z,2.20
2024-02-04T01:52:32.091Z,1.80
2024-02-04T01:55:01.573Z,1.93
2024-02-04T01:57:29.614Z,2.10
2024-02-04T01:59:58.339Z,2.10
2024-02-04T02:02:29.910Z,2.30
2024-02-04T02:04:59.439Z,2.30
2024-02-04T02:07:28.736Z,2.30
2024-02-04T02:09:57.498Z,2.13
2024-02-04T02:12:27.779Z,2.50
2024-02-04T02:15:02.253Z,2.23
2024-02-04T02:17:33.973Z,1.87
2024-02-04T02:20:07.088Z,1.90
2024-02-04T02:22:40.763Z,1.97
2024-02-04T02:25:10.204Z,2.23
2024-02-04T02:27:48.550Z,2.53
2024-02-04T02:30:17.796Z,2.30
2024-02-04T02:32:46.312Z,2.47
2024-02-04T02:35:14.819Z,2.50
2024-02-04T02:37:46.753Z,2.40
2024-02-04T02:40:19.740Z,2.90
2024-02-04T02:42:48.628Z,2.57
2024-02-04T02:45:18.261Z,2.80
2024-02-04T02:47:46.965Z,2.90
2024-02-04T02:50:15.822Z,2.20
2024-02-04T02:52:43.758Z,2.80
2024-02-04T02:55:11.880Z,2.93
2024-02-04T02:57:41.205Z,2.20
2024-02-04T03:00:10.319Z,2.73
2024-02-04T03:02:38.194Z,3.20
2024-02-04T03:05:06.652Z,2.80
2024-02-04T03:07:34.525Z,2.80
2024-02-04T03:10:02.482Z,3.03
2024-02-04T03:12:30.387Z,3.20
2024-02-04T03:14:59.781Z,3.17
2024-02-04T03:17:27.793Z,3.30
2024-02-04T03:19:56.270Z,2.90
2024-02-04T03:22:24.998Z,3.00
2024-02-04T03:24:53.382Z,2.70
2024-02-04T03:27:21.680Z,2.60
2024-02-04T03:29:50.107Z,2.70
2024-02-04T03:32:19.624Z,2.80
2024-02-04T03:34:48.052Z,2.83
2024-02-04T03:37:16.175Z,2.57
2024-02-04T03:39:44.131Z,2.87
2024-02-04T03:42:12.017Z,2.57
2024-02-04T03:44:39.993Z,2.87
2024-02-04T03:47:07.960Z,2.67
2024-02-04T03:49:37.264Z,3.07
2024-02-04T03:52:05.899Z,2.73
2024-02-04T03:54:33.809Z,3.10
2024-02-04T03:57:01.765Z,3.00
2024-02-04T03:59:29.861Z,3.37
2024-02-04T04:01:59.046Z,3.10
2024-02-04T04:04:27.568Z,3.30
2024-02-04T04:06:57.263Z,3.00
2024-02-04T04:09:25.287Z,3.37
2024-02-04T04:11:53.199Z,3.90
2024-02-04T04:14:21.053Z,3.47
2024-02-04T04:16:51.598Z,3.70
2024-02-04T04:19:19.673Z,3.33
2024-02-04T04:21:47.639Z,3.90
2024-02-04T04:24:17.001Z,4.30
2024-02-04T04:26:44.930Z,3.77
2024-02-04T04:29:12.845Z,4.23
2024-02-04T04:31:40.760Z,3.87
2024-02-04T04:34:08.838Z,3.10
2024-02-04T04:36:37.300Z,3.37
2024-02-04T04:39:05.318Z,3.40
2024-02-04T04:41:34.619Z,3.90
2024-02-04T04:44:02.520Z,3.60
2024-02-04T04:46:30.718Z,3.27
2024-02-04T04:48:59.710Z,3.67
2024-02-04T04:51:28.893Z,3.40
2024-02-04T04:53:56.837Z,3.00
2024-02-04T04:56:24.808Z,3.47
2024-02-04T04:58:54.166Z,3.17
2024-02-04T05:01:25.019Z,4.90
2024-02-04T05:03:53.300Z,3.50
2024-02-04T05:06:21.331Z,3.43
2024-02-04T05:08:49.239Z,3.10
2024-02-04T05:11:17.645Z,3.10
2024-02-04T05:13:45.641Z,2.40
2024-02-04T05:16:14.909Z,2.63
2024-02-04T05:18:42.902Z,2.30
2024-02-04T05:21:10.873Z,2.50
2024-02-04T05:23:39.184Z,2.20
2024-02-04T05:26:09.995Z,1.90
2024-02-04T05:28:37.938Z,2.00
2024-02-04T05:31:06.321Z,1.77
2024-02-04T05:33:36.039Z,1.57
2024-02-04T05:36:04.830Z,1.37
2024-02-04T05:38:32.840Z,1.90
2024-02-04T05:41:00.774Z,2.00
2024-02-04T05:43:28.678Z,1.60
2024-02-04T05:45:56.759Z,1.90
2024-02-04T05:48:24.818Z,1.50
2024-02-04T05:50:54.186Z,1.50
2024-02-04T05:53:22.117Z,1.60
2024-02-04T05:55:49.985Z,1.23
2024-02-04T05:58:17.930Z,1.43
2024-02-04T06:00:45.826Z,1.20
2024-02-04T06:03:15.405Z,1.27
2024-02-04T06:05:43.377Z,1.30
2024-02-04T06:08:12.760Z,1.30
2024-02-04T06:10:40.677Z,1.30
2024-02-04T06:13:08.698Z,1.20
2024-02-04T06:15:37.247Z,1.30
2024-02-04T06:18:05.625Z,1.33
2024-02-04T06:20:33.631Z,1.33
2024-02-04T06:23:02.095Z,1.40
2024-02-04T06:25:31.670Z,1.50
2024-02-04T06:27:59.730Z,1.33
2024-02-04T06:30:27.721Z,1.33
2024-02-04T06:32:57.980Z,1.10
2024-02-04T06:35:26.395Z,1.20
2024-02-04T06:37:54.579Z,1.10
2024-02-04T06:40:22.575Z,1.10
2024-02-04T06:42:52.016Z,1.20
2024-02-04T06:45:19.947Z,1.20
2024-02-04T06:47:47.851Z,1.17
2024-02-04T06:50:17.064Z,1.20
2024-02-04T06:52:46.803Z,1.10
2024-02-04T06:55:14.790Z,1.20
2024-02-04T06:57:42.713Z,1.07
2024-02-04T07:00:13.536Z,1.20
2024-02-04T07:02:41.510Z,1.10
2024-02-04T07:05:11.525Z,1.20
2024-02-04T07:07:40.590Z,1.30
2024-02-04T07:10:09.391Z,1.00
2024-02-04T07:12:37.494Z,1.20
2024-02-04T07:15:06.009Z,1.20
2024-02-04T07:17:35.927Z,0.90
2024-02-04T07:20:04.126Z,1.10
2024-02-04T07:22:33.501Z,1.10
2024-02-04T07:25:03.387Z,0.90
2024-02-04T07:27:32.156Z,0.93
2024-02-04T07:30:00.633Z,1.00
2024-02-04T07:32:28.697Z,0.87
2024-02-04T07:34:58.804Z,0.80
2024-02-04T07:37:26.980Z,1.10
2024-02-04T07:39:54.963Z,0.70
2024-02-04T07:42:23.589Z,1.03
2024-02-04T07:44:51.458Z,0.90
2024-02-04T07:47:20.779Z,0.90
2024-02-04T07:49:48.993Z,1.87
2024-02-04T07:52:18.492Z,1.10
2024-02-04T07:54:47.505Z,2.07
2024-02-04T07:57:15.546Z,1.37
2024-02-04T07:59:43.523Z,0.97
2024-02-04T08:02:11.620Z,1.70
2024-02-04T08:04:42.533Z,1.10
2024-02-04T08:07:11.075Z,1.10
2024-02-04T08:09:40.536Z,2.10
2024-02-04T08:12:09.294Z,1.60
2024-02-04T08:14:37.245Z,1.40
2024-02-04T08:17:05.656Z,1.10
2024-02-04T08:19:34.092Z,1.40
2024-02-04T08:22:02.173Z,1.30
2024-02-04T08:24:33.174Z,1.63
2024-02-04T08:27:02.565Z,1.00
2024-02-04T08:29:30.582Z,1.00
2024-02-04T08:32:01.351Z,0.90
2024-02-04T08:34:29.363Z,1.17
2024-02-04T08:36:57.702Z,0.90
2024-02-04T08:39:26.897Z,0.90
2024-02-04T08:41:54.812Z,0.60
2024-02-04T08:44:32.236Z,0.70
2024-02-04T08:47:07.132Z,0.60
2024-02-04T08:49:35.258Z,0.60
2024-02-04T08:52:03.406Z,0.60
2024-02-04T08:54:31.540Z,0.73
2024-02-04T08:56:59.823Z,0.70
2024-02-04T08:59:29.304Z,0.70
2024-02-04T09:01:57.307Z,0.70
2024-02-04T09:04:25.454Z,0.60
2024-02-04T09:06:53.642Z,0.60
2024-02-04T09:09:21.780Z,0.70
2024-02-04T09:11:49.713Z,0.60
2024-02-04T09:14:17.895Z,0.70
2024-02-04T09:16:47.442Z,0.70
2024-02-04T09:19:15.623Z,0.60
2024-02-04T09:21:44.424Z,0.70
2024-02-04T09:24:12.697Z,0.60
2024-02-04T09:26:40.662Z,0.70
2024-02-04T09:29:08.603Z,0.80
2024-02-04T09:31:36.872Z,1.10
2024-02-04T09:34:06.403Z,0.70
2024-02-04T09:36:34.749Z,0.70
2024-02-04T09:39:03.121Z,0.80
2024-02-04T09:41:31.286Z,0.60
2024-02-04T09:43:59.372Z,0.60
2024-02-04T09:46:28.071Z,0.80
2024-02-04T09:49:01.478Z,0.70
2024-02-04T09:51:33.036Z,0.70
2024-02-04T09:54:07.908Z,0.80
2024-02-04T09:56:37.798Z,0.70
2024-02-04T09:59:07.333Z,0.70
2024-02-04T10:01:36.242Z,0.80
2024-02-04T10:04:06.299Z,0.60
2024-02-04T10:06:37.262Z,0.70
2024-02-04T10:09:06.920Z,0.77
2024-02-04T10:11:35.237Z,0.70
2024-02-04T10:14:03.160Z,0.70
2024-02-04T10:16:31.269Z,0.80
2024-02-04T10:18:59.553Z,0.70
2024-02-04T10:21:28.551Z,0.77
2024-02-04T10:23:58.155Z,1.00
2024-02-04T10:26:32.066Z,0.77
2024-02-04T10:29:00.394Z,0.70
2024-02-04T10:31:28.856Z,0.70
2024-02-04T10:33:57.471Z,0.70
2024-02-04T10:36:25.475Z,0.80
2024-02-04T10:38:53.390Z,0.60
2024-02-04T10:41:23.688Z,0.70
2024-02-04T10:43:52.186Z,0.60
2024-02-04T10:46:21.794Z,0.80
2024-02-04T10:48:54.729Z,1.07
2024-02-04T10:51:26.750Z,1.33
2024-02-04T10:53:57.070Z,0.80
2024-02-04T10:56:31.901Z,0.60
2024-02-04T10:59:03.448Z,0.80
2024-02-04T11:01:31.723Z,0.63
2024-02-04T11:04:00.736Z,1.10
2024-02-04T11:06:29.370Z,0.70
2024-02-04T11:08:58.882Z,0.60
2024-02-04T11:11:29.114Z,0.70
2024-02-04T11:14:00.705Z,0.70
2024-02-04T11:16:42.408Z,0.90
2024-02-04T11:19:19.597Z,0.67
2024-02-04T11:22:09.434Z,0.80
2024-02-04T11:24:52.539Z,0.77
2024-02-04T11:27:22.010Z,0.70
2024-02-04T11:29:51.321Z,1.00
2024-02-04T11:32:19.711Z,0.80
2024-02-04T11:34:48.072Z,0.70
2024-02-04T11:37:19.362Z,0.87
2024-02-04T11:39:51.110Z,0.80
2024-02-04T11:42:19.118Z,0.90
2024-02-04T11:44:48.764Z,0.80
2024-02-04T11:47:25.297Z,0.80
2024-02-04T11:49:56.940Z,0.80
2024-02-04T11:52:25.353Z,1.10
2024-02-04T11:54:54.284Z,1.00
2024-02-04T11:57:22.288Z,0.80
2024-02-04T11:59:53.039Z,0.97
2024-02-04T12:02:22.275Z,0.97
2024-02-04T12:04:50.550Z,1.10
2024-02-04T12:07:19.322Z,1.43
2024-02-04T12:09:47.941Z,1.90
2024-02-04T12:12:16.385Z,1.70
2024-02-04T12:14:44.305Z,2.90
2024-02-04T12:17:14.596Z,1.50
2024-02-04T12:19:44.742Z,1.30
2024-02-04T12:22:13.878Z,1.40
2024-02-04T12:24:42.025Z,1.10
2024-02-04T12:27:16.237Z,1.20
2024-02-04T12:29:44.384Z,1.13
2024-02-04T12:32:16.063Z,1.10
2024-02-04T12:34:49.089Z,1.20
2024-02-04T12:37:17.181Z,1.20
2024-02-04T12:39:45.590Z,1.10
2024-02-04T12:42:19.691Z,1.30
2024-02-04T12:44:48.429Z,1.00
2024-02-04T12:47:21.329Z,1.10
2024-02-04T12:49:50.063Z,1.10
2024-02-04T12:52:24.727Z,1.20
2024-02-04T12:54:54.174Z,1.17
2024-02-04T12:57:25.611Z,0.97
2024-02-04T12:59:53.694Z,1.17
2024-02-04T13:02:23.864Z,1.10
2024-02-04T13:04:52.067Z,1.10
2024-02-04T13:07:20.999Z,1.07
2024-02-04T13:09:59.949Z,0.93
2024-02-04T13:12:29.142Z,1.03
2024-02-04T13:14:57.143Z,1.00
2024-02-04T13:17:26.491Z,1.10
2024-02-04T13:19:55.000Z,1.17
2024-02-04T13:22:23.433Z,1.10
2024-02-04T13:24:51.483Z,1.30
2024-02-04T13:27:19.508Z,1.07
2024-02-04T13:29:49.126Z,0.90
2024-02-04T13:32:20.290Z,1.80
2024-02-04T13:34:50.859Z,1.40
2024-02-04T13:37:22.089Z,0.87
2024-02-04T13:39:50.213Z,0.90
2024-02-04T13:42:18.196Z,0.97
2024-02-04T13:44:46.140Z,1.03
2024-02-04T13:47:14.068Z,1.10
2024-02-04T13:49:42.457Z,1.00
2024-02-04T13:52:12.886Z,0.80
2024-02-04T13:54:41.138Z,0.80
2024-02-04T13:57:09.149Z,0.80
2024-02-04T13:59:40.217Z,1.00
2024-02-04T14:02:09.746Z,0.90
2024-02-04T14:04:38.302Z,1.00
2024-02-04T14:07:06.700Z,0.80
2024-02-04T14:09:36.180Z,1.00
2024-02-04T14:12:04.768Z,1.10
2024-02-04T14:14:33.963Z,1.10
2024-02-04T14:17:01.920Z,1.00
2024-02-04T14:19:30.399Z,1.30
2024-02-04T14:21:58.499Z,1.00
2024-02-04T14:24:27.020Z,1.07
2024-02-04T14:26:59.975Z,1.10
2024-02-04T14:29:28.278Z,1.20
2024-02-04T14:31:57.066Z,1.10
2024-02-04T14:34:25.201Z,1.00
2024-02-04T14:36:53.210Z,1.17
2024-02-04T14:39:21.192Z,1.00
2024-02-04T14:41:49.255Z,1.40
2024-02-04T14:44:18.483Z,1.10
2024-02-04T14:46:46.937Z,1.00
2024-02-04T14:49:14.994Z,1.10
2024-02-04T14:51:43.322Z,1.27
2024-02-04T14:54:14.298Z,0.97
2024-02-04T14:56:42.681Z,1.00
2024-02-04T14:59:20.553Z,1.10
2024-02-04T15:01:52.570Z,1.17
2024-02-04T15:04:21.354Z,1.30
2024-02-04T15:06:49.773Z,1.20
2024-02-04T15:09:17.789Z,1.20
2024-02-04T15:11:46.168Z,1.40
2024-02-04T15:14:14.671Z,1.30
2024-02-04T15:16:43.215Z,1.23
2024-02-04T15:19:13.229Z,1.73
2024-02-04T15:21:41.774Z,1.80
2024-02-04T15:24:10.972Z,1.33
2024-02-04T15:26:41.500Z,1.83
2024-02-04T15:29:09.984Z,1.87
2024-02-04T15:31:38.392Z,1.53
2024-02-04T15:34:08.095Z,2.30
2024-02-04T15:36:37.864Z,1.70
2024-02-04T15:39:06.376Z,1.97
2024-02-04T15:41:34.386Z,2.03
2024-02-04T15:44:02.348Z,1.70
2024-02-04T15:46:31.075Z,2.10
2024-02-04T15:48:59.796Z,2.20
2024-02-04T15:51:30.142Z,2.20
2024-02-04T15:54:01.534Z,2.50
2024-02-04T15:56:33.462Z,2.10
2024-02-04T15:59:09.183Z,2.47
2024-02-04T16:01:37.615Z,2.50
2024-02-04T16:04:06.505Z,2.37
2024-02-04T16:06:35.564Z,2.37
2024-02-04T16:09:09.126Z,2.40
2024-02-04T16:11:45.521Z,2.30
2024-02-04T16:14:14.390Z,1.97
2024-02-04T16:16:46.446Z,2.40
2024-02-04T16:19:16.384Z,2.20
2024-02-04T16:21:45.490Z,2.00
2024-02-04T16:24:14.897Z,2.30
2024-02-04T16:26:42.909Z,2.17
2024-02-04T16:29:10.971Z,2.23
2024-02-04T16:31:39.135Z,2.43
2024-02-04T16:34:07.842Z,2.30
2024-02-04T16:36:36.319Z,2.03
2024-02-04T16:39:06.775Z,2.67
2024-02-04T16:41:36.427Z,3.10
2024-02-04T16:44:04.912Z,2.63
2024-02-04T16:46:33.508Z,2.03
2024-02-04T16:49:01.985Z,2.23
2024-02-04T16:51:30.108Z,3.50
2024-02-04T16:53:58.823Z,2.60
2024-02-04T16:56:27.083Z,2.90
2024-02-04T16:58:56.839Z,2.40
2024-02-04T17:01:25.776Z,1.80
2024-02-04T17:03:54.384Z,1.97
2024-02-04T17:06:23.919Z,2.33
2024-02-04T17:08:52.530Z,2.10
2024-02-04T17:11:22.157Z,3.60
2024-02-04T17:13:54.025Z,2.60
2024-02-04T17:16:30.956Z,2.30
2024-02-04T17:19:06.546Z,2.17
2024-02-04T17:21:38.828Z,1.97
2024-02-04T17:24:13.992Z,2.30
2024-02-04T17:26:42.639Z,2.40
2024-02-04T17:29:11.287Z,2.50
2024-02-04T17:31:41.269Z,2.33
2024-02-04T17:34:09.949Z,2.30
2024-02-04T17:36:39.990Z,2.13
2024-02-04T17:39:08.264Z,2.03
2024-02-04T17:41:36.286Z,1.87
2024-02-04T17:44:04.394Z,2.13
2024-02-04T17:46:32.380Z,1.87
2024-02-04T17:49:03.187Z,1.97
2024-02-04T17:51:32.917Z,2.10
2024-02-04T17:54:01.610Z,1.93
2024-02-04T17:56:29.737Z,1.40
2024-02-04T17:58:57.636Z,1.30
2024-02-04T18:01:26.463Z,1.63
2024-02-04T18:03:54.688Z,1.50
2024-02-04T18:06:27.446Z,2.00
2024-02-04T18:08:55.763Z,1.30
2024-02-04T18:11:24.775Z,1.30
2024-02-04T18:13:52.788Z,1.30
2024-02-04T18:16:21.401Z,1.20
2024-02-04T18:18:49.505Z,1.50
2024-02-04T18:21:21.773Z,1.33
2024-02-04T18:23:52.956Z,1.20
2024-02-04T18:26:24.770Z,1.23
2024-02-04T18:28:55.140Z,1.00
2024-02-04T18:31:25.589Z,1.30
2024-02-04T18:33:54.503Z,1.23
2024-02-04T18:36:24.566Z,1.10
2024-02-04T18:38:58.084Z,0.80
2024-02-04T18:41:26.340Z,1.10
2024-02-04T18:43:55.360Z,1.00
2024-02-04T18:46:23.554Z,1.33
2024-02-04T18:48:51.897Z,1.20
2024-02-04T18:51:20.109Z,1.03
2024-02-04T18:53:48.899Z,1.10
2024-02-04T18:56:18.286Z,1.17
2024-02-04T18:58:51.034Z,1.50
2024-02-04T19:01:23.809Z,1.40
2024-02-04T19:03:52.191Z,1.67
2024-02-04T19:06:27.203Z,1.27
2024-02-04T19:08:55.293Z,1.20
2024-02-04T19:11:25.166Z,1.50
2024-02-04T19:13:53.864Z,1.30
2024-02-04T19:16:22.497Z,1.00
2024-02-04T19:18:51.997Z,0.97
2024-02-04T19:21:20.087Z,1.20
2024-02-04T19:23:49.290Z,0.77
2024-02-04T19:26:18.341Z,1.10
2024-02-04T19:28:47.694Z,1.20
2024-02-04T19:31:15.801Z,0.90
2024-02-04T19:33:43.859Z,1.03
2024-02-04T19:36:11.759Z,0.80
2024-02-04T19:38:40.584Z,1.00
2024-02-04T19:41:08.542Z,0.90
2024-02-04T19:43:36.703Z,1.00
2024-02-04T19:46:08.904Z,0.80
2024-02-04T19:48:36.946Z,1.00
2024-02-04T19:51:06.697Z,0.80
2024-02-04T19:53:34.865Z,0.90
2024-02-04T19:56:02.887Z,0.80
2024-02-04T19:58:31.165Z,1.10
2024-02-04T20:00:59.180Z,0.90
2024-02-04T20:03:28.625Z,0.93
2024-02-04T20:05:56.474Z,0.90
2024-02-04T20:08:24.604Z,0.90
2024-02-04T20:10:52.820Z,0.97
2024-02-04T20:13:22.436Z,0.90
2024-02-04T20:15:50.436Z,0.87
2024-02-04T20:18:18.691Z,0.83
2024-02-04T20:20:48.199Z,1.27
2024-02-04T20:23:16.843Z,1.50
2024-02-04T20:25:44.807Z,0.80
2024-02-04T20:28:12.804Z,0.80
2024-02-04T20:30:40.793Z,0.70
2024-02-04T20:33:09.811Z,0.80
2024-02-04T20:35:38.018Z,0.70
2024-02-04T20:38:07.403Z,0.87
2024-02-04T20:40:35.987Z,0.90
2024-02-04T20:43:04.044Z,0.90
2024-02-04T20:45:31.992Z,1.00
2024-02-04T20:48:00.493Z,0.80
2024-02-04T20:50:28.793Z,0.70
2024-02-04T20:52:56.792Z,0.60
2024-02-04T20:55:27.229Z,0.80
2024-02-04T20:57:55.331Z,0.70
2024-02-04T21:00:23.520Z,0.73
2024-02-04T21:02:51.520Z,0.83
2024-02-04T21:05:19.708Z,0.83
2024-02-04T21:07:48.055Z,0.80
2024-02-04T21:10:16.259Z,1.13
2024-02-04T21:12:48.182Z,0.80
2024-02-04T21:15:19.761Z,0.80
2024-02-04T21:17:47.988Z,0.80
2024-02-04T21:20:16.463Z,0.80
2024-02-04T21:22:45.083Z,0.80
2024-02-04T21:25:13.977Z,0.90
2024-02-04T21:27:42.680Z,1.80
2024-02-04T21:30:12.580Z,1.00
2024-02-04T21:32:40.575Z,0.90
2024-02-04T21:35:10.980Z,0.90
2024-02-04T21:37:39.099Z,0.80
2024-02-04T21:40:09.000Z,0.80
2024-02-04T21:42:38.788Z,1.27
2024-02-04T21:45:08.234Z,0.90
2024-02-04T21:47:37.693Z,0.90
2024-02-04T21:50:07.517Z,0.90
2024-02-04T21:52:35.839Z,0.90
2024-02-04T21:55:05.894Z,0.80
2024-02-04T21:57:34.155Z,0.83
2024-02-04T22:00:02.354Z,0.73
2024-02-04T22:02:33.087Z,0.90
2024-02-04T22:05:02.481Z,0.80
2024-02-04T22:07:30.835Z,1.00
2024-02-04T22:09:58.925Z,0.90
2024-02-04T22:12:26.998Z,1.00
2024-02-04T22:14:57.890Z,0.90
2024-02-04T22:17:26.699Z,0.80
2024-02-04T22:19:54.666Z,1.20
2024-02-04T22:22:25.352Z,1.00
2024-02-04T22:24:53.440Z,1.10
2024-02-04T22:27:21.749Z,1.10
2024-02-04T22:29:50.242Z,1.00
2024-02-04T22:32:18.431Z,1.07
2024-02-04T22:34:47.908Z,1.17
2024-02-04T22:37:16.529Z,0.90
2024-02-04T22:39:46.003Z,1.10
2024-02-04T22:42:13.952Z,1.10
2024-02-04T22:44:42.582Z,1.20
2024-02-04T22:47:11.058Z,1.07
2024-02-04T22:49:39.395Z,1.10
2024-02-04T22:52:08.243Z,1.03
2024-02-04T22:54:36.700Z,1.20
2024-02-04T22:57:08.233Z,0.97
2024-02-04T22:59:36.174Z,1.10
2024-02-04T23:02:05.098Z,0.80
2024-02-04T23:04:36.761Z,0.93
2024-02-04T23:07:05.405Z,0.90
2024-02-04T23:09:33.374Z,0.90
2024-02-04T23:12:01.555Z,1.10
2024-02-04T23:14:31.390Z,1.00
2024-02-04T23:16:59.459Z,1.00
2024-02-04T23:19:27.522Z,0.97
2024-02-04T23:21:56.761Z,0.90
2024-02-04T23:24:24.795Z,1.00
2024-02-04T23:26:53.206Z,0.97
2024-02-04T23:29:22.055Z,0.90
2024-02-04T23:31:52.415Z,0.90
2024-02-04T23:34:20.627Z,0.80
2024-02-04T23:36:48.753Z,0.90
2024-02-04T23:39:19.795Z,0.80
2024-02-04T23:41:47.902Z,1.13
2024-02-04T23:44:15.984Z,0.70
2024-02-04T23:46:43.913Z,0.70
2024-02-04T23:49:14.083Z,0.80
2024-02-04T23:51:42.115Z,0.80
2024-02-04T23:54:10.719Z,0.80
2024-02-04T23:56:38.596Z,0.87
2024-02-04T23:59:06.733Z,0.90
